Terminal Aerodrome Forecast
Issued by NWS

Home | Current Version | Previous Version | Text Only | Print | Product List | Glossary On
Versions: 1 2 3 4 5 6 7 8 9 10 11 12 13 14 15 16 17
525
FTUS43 KGRR 182354
TAFBTL
TAF
KBTL 182354Z 1900/1924 29008KT P6SM SCT040 BKN080
     FM190600 27006KT P6SM BKN080
     FM191000 29004KT P6SM VCSH BKN020
     FM191400 28009KT P6SM BKN040=

USA.gov is the U.S. government's official web portal to all federal, state and local government web resources and services.